Back to Top

Language: 

My Weather Underground Personal Weather Station Historical Data with Graphs...

Delerius Weather Station Historical Data
Daily Summary for June 23, 2017 Units:  Metric    English   Both
« Previous Day
Next Day »
Daily Weekly Monthly Yearly Custom
  High: Low: Average:
Temperature: 19 °C 14.4 °C 16.6 °C
Dew Point: 14.7 °C 11.2 °C 13.1 °C
Humidity: 89 % 75 % 80 %
Wind Speed: 29 km/h 1.6 km/h 15.6 km/h
Wind Gust: 53.1 km/h - -
Wind:- - WSW
Pressure: 1012.1 hPa 1010 hPa -
Precipitation: 0.51 mm    
Historical Graphs
 
 
Tabular Data for June 23, 2017
Time Temperature Dew Point Pressure Wind Wind Speed Wind Gust Humidity Rainfall Rate (Hourly) solar Conditions
00:01 14.8 °C 11.4 °C 1011.7 hPa WSW 3.2 km/h 9.7 km/h 80 % 0 mm 0 W/m2
00:06 14.8 °C 11.4 °C 1011.7 hPa West 4.8 km/h 14.5 km/h 80 % 0 mm 0 W/m2
00:11 14.8 °C 11.4 °C 1011.7 hPa West 8 km/h 14.5 km/h 80 % 0 mm 0 W/m2
00:16 14.8 °C 11.4 °C 1011.7 hPa West 8 km/h 14.5 km/h 80 % 0 mm 0 W/m2
00:21 14.8 °C 11.6 °C 1011.7 hPa West 9.7 km/h 16.1 km/h 81 % 0 mm 0 W/m2
00:26 14.8 °C 11.6 °C 1011.7 hPa West 9.7 km/h 16.1 km/h 81 % 0 mm 0 W/m2
00:31 14.8 °C 11.6 °C 1011.7 hPa West 8 km/h 12.9 km/h 81 % 0 mm 0 W/m2
00:36 14.8 °C 11.6 °C 1011.7 hPa West 4.8 km/h 11.3 km/h 81 % 0 mm 0 W/m2
00:42 14.8 °C 11.6 °C 1011.7 hPa WSW 4.8 km/h 11.3 km/h 81 % 0 mm 0 W/m2
00:47 14.8 °C 11.6 °C 1011.7 hPa SW 4.8 km/h 12.9 km/h 81 % 0 mm 0 W/m2
00:52 14.8 °C 11.6 °C 1011.7 hPa WSW 8 km/h 16.1 km/h 81 % 0 mm 0 W/m2
00:57 14.8 °C 11.6 °C 1011.7 hPa WSW 9.7 km/h 19.3 km/h 81 % 0 mm 0 W/m2
01:02 14.8 °C 11.6 °C 1011.7 hPa WSW 9.7 km/h 19.3 km/h 81 % 0 mm 0 W/m2
01:07 14.8 °C 11.6 °C 1011.4 hPa WSW 9.7 km/h 16.1 km/h 81 % 0 mm 0 W/m2
01:12 14.8 °C 11.4 °C 1011.4 hPa WSW 9.7 km/h 16.1 km/h 80 % 0 mm 0 W/m2
01:17 14.9 °C 11.5 °C 1011.4 hPa WSW 12.9 km/h 24.1 km/h 80 % 0 mm 0 W/m2
01:22 14.9 °C 11.5 °C 1011.4 hPa West 14.5 km/h 24.1 km/h 80 % 0 mm 0 W/m2
01:27 14.9 °C 11.5 °C 1011.4 hPa West 12.9 km/h 20.9 km/h 80 % 0 mm 0 W/m2
01:32 14.9 °C 11.5 °C 1011.7 hPa West 9.7 km/h 20.9 km/h 80 % 0 mm 0 W/m2
01:37 14.8 °C 11.4 °C 1011.7 hPa WSW 9.7 km/h 16.1 km/h 80 % 0 mm 0 W/m2
01:42 14.8 °C 11.4 °C 1011.7 hPa WSW 11.3 km/h 25.7 km/h 80 % 0 mm 0 W/m2
01:47 14.9 °C 11.5 °C 1011.7 hPa WSW 14.5 km/h 25.7 km/h 80 % 0 mm 0 W/m2
01:52 14.9 °C 11.5 °C 1011.4 hPa West 12.9 km/h 22.5 km/h 80 % 0 mm 0 W/m2
01:57 14.9 °C 11.5 °C 1011.4 hPa West 14.5 km/h 24.1 km/h 80 % 0 mm 0 W/m2
02:02 14.9 °C 11.5 °C 1011.4 hPa WSW 14.5 km/h 24.1 km/h 80 % 0 mm 0 W/m2
02:07 14.9 °C 11.3 °C 1011.4 hPa West 16.1 km/h 30.6 km/h 79 % 0 mm 0 W/m2
02:12 14.9 °C 11.5 °C 1011.4 hPa WSW 14.5 km/h 30.6 km/h 80 % 0 mm 0 W/m2
02:17 14.9 °C 11.5 °C 1011.4 hPa WSW 12.9 km/h 25.7 km/h 80 % 0 mm 0 W/m2
02:22 14.9 °C 11.3 °C 1011.4 hPa West 14.5 km/h 25.7 km/h 79 % 0 mm 0 W/m2
02:27 14.9 °C 11.3 °C 1011.4 hPa West 14.5 km/h 29 km/h 79 % 0 mm 0 W/m2
02:28 14.9 °C 11.3 °C 1011.1 hPa West 14.5 km/h 29 km/h 79 % 0 mm 0 W/m2
02:33 14.8 °C 11.2 °C 1011.1 hPa West 12.9 km/h 29 km/h 79 % 0 mm 0 W/m2
02:38 14.8 °C 11.2 °C 1011.1 hPa West 11.3 km/h 20.9 km/h 79 % 0 mm 0 W/m2
02:43 14.8 °C 11.4 °C 1011.1 hPa WSW 9.7 km/h 19.3 km/h 80 % 0 mm 0 W/m2
02:48 14.8 °C 11.2 °C 1011.1 hPa WSW 9.7 km/h 20.9 km/h 79 % 0 mm 0 W/m2
02:53 14.8 °C 11.2 °C 1011.1 hPa WSW 9.7 km/h 20.9 km/h 79 % 0 mm 0 W/m2
02:58 14.8 °C 11.2 °C 1010.7 hPa SW 8 km/h 17.7 km/h 79 % 0 mm 0 W/m2
03:03 14.8 °C 11.2 °C 1011.1 hPa SW 9.7 km/h 19.3 km/h 79 % 0 mm 0 W/m2
03:08 14.8 °C 11.2 °C 1010.7 hPa SW 11.3 km/h 24.1 km/h 79 % 0 mm 0 W/m2
03:13 14.8 °C 11.2 °C 1010.7 hPa WSW 12.9 km/h 25.7 km/h 79 % 0 mm 0 W/m2
03:18 14.8 °C 11.2 °C 1010.7 hPa WSW 14.5 km/h 25.7 km/h 79 % 0 mm 0 W/m2
03:24 14.8 °C 11.2 °C 1010.7 hPa WSW 16.1 km/h 32.2 km/h 79 % 0 mm 0 W/m2
03:29 14.8 °C 11.2 °C 1010.4 hPa WSW 14.5 km/h 32.2 km/h 79 % 0 mm 0 W/m2
03:33 14.8 °C 11.2 °C 1010.7 hPa WSW 14.5 km/h 25.7 km/h 79 % 0 mm 0 W/m2
03:39 14.8 °C 11.2 °C 1010.7 hPa WSW 14.5 km/h 30.6 km/h 79 % 0 mm 0 W/m2
03:44 14.8 °C 11.2 °C 1010.7 hPa WSW 14.5 km/h 30.6 km/h 79 % 0 mm 0 W/m2
03:49 14.8 °C 11.2 °C 1010.4 hPa WSW 14.5 km/h 30.6 km/h 79 % 0 mm 0 W/m2
03:54 14.8 °C 11.2 °C 1010.4 hPa WSW 14.5 km/h 29 km/h 79 % 0 mm 0 W/m2
03:59 14.8 °C 11.2 °C 1010.4 hPa WSW 14.5 km/h 24.1 km/h 79 % 0 mm 0 W/m2
04:04 14.8 °C 11.2 °C 1010.4 hPa WSW 14.5 km/h 22.5 km/h 79 % 0 mm 0 W/m2
04:09 14.9 °C 11.3 °C 1010.4 hPa WSW 16.1 km/h 25.7 km/h 79 % 0 mm 0 W/m2
04:14 14.9 °C 11.3 °C 1010.4 hPa SW 17.7 km/h 32.2 km/h 79 % 0 mm 0 W/m2
04:19 14.9 °C 11.3 °C 1010.4 hPa SW 17.7 km/h 32.2 km/h 79 % 0 mm 0 W/m2
04:24 14.9 °C 11.3 °C 1010.4 hPa SW 17.7 km/h 25.7 km/h 79 % 0 mm 0 W/m2
04:29 14.9 °C 11.3 °C 1010.7 hPa SW 17.7 km/h 32.2 km/h 79 % 0 mm 0 W/m2
04:34 14.9 °C 11.3 °C 1010.7 hPa SW 16.1 km/h 32.2 km/h 79 % 0 mm 0 W/m2
04:39 14.9 °C 11.3 °C 1010.4 hPa SW 14.5 km/h 29 km/h 79 % 0 mm 0 W/m2
04:44 14.9 °C 11.3 °C 1010.4 hPa SW 16.1 km/h 24.1 km/h 79 % 0 mm 0 W/m2
04:49 14.9 °C 11.5 °C 1010.4 hPa SW 14.5 km/h 24.1 km/h 80 % 0 mm 5 W/m2
04:54 14.9 °C 11.3 °C 1010.4 hPa SW 12.9 km/h 22.5 km/h 79 % 0 mm 5 W/m2
04:59 14.9 °C 11.5 °C 1010.4 hPa SW 14.5 km/h 20.9 km/h 80 % 0 mm 7 W/m2
05:04 14.9 °C 11.5 °C 1010.4 hPa SW 14.5 km/h 20.9 km/h 80 % 0 mm 9 W/m2
05:05 14.9 °C 11.5 °C 1010.4 hPa SW 14.5 km/h 20.9 km/h 80 % 0 mm 9 W/m2
05:10 14.9 °C 11.5 °C 1010 hPa WSW 14.5 km/h 25.7 km/h 80 % 0 mm 11 W/m2
05:15 14.9 °C 11.5 °C 1010 hPa WSW 14.5 km/h 25.7 km/h 80 % 0 mm 11 W/m2
05:20 14.9 °C 11.5 °C 1010 hPa WSW 16.1 km/h 29 km/h 80 % 0 mm 11 W/m2
05:25 14.9 °C 11.5 °C 1010 hPa WSW 14.5 km/h 29 km/h 80 % 0 mm 12 W/m2
05:30 15 °C 11.4 °C 1010 hPa WSW 16.1 km/h 29 km/h 79 % 0 mm 14 W/m2
05:35 15.1 °C 11.5 °C 1010 hPa West 16.1 km/h 29 km/h 79 % 0 mm 14 W/m2
05:40 15.1 °C 11.5 °C 1010 hPa WSW 14.5 km/h 32.2 km/h 79 % 0 mm 18 W/m2
05:45 15.2 °C 11.6 °C 1010 hPa WSW 19.3 km/h 40.2 km/h 79 % 0 mm 18 W/m2
05:50 15.2 °C 11.6 °C 1010.4 hPa WSW 17.7 km/h 40.2 km/h 79 % 0 mm 14 W/m2
05:55 15.2 °C 11.6 °C 1010.4 hPa WSW 16.1 km/h 32.2 km/h 79 % 0 mm 16 W/m2
05:56 15.2 °C 11.6 °C 1010.4 hPa WSW 16.1 km/h 32.2 km/h 79 % 0 mm 16 W/m2
06:01 15.3 °C 11.9 °C 1010.4 hPa WSW 16.1 km/h 32.2 km/h 80 % 0 mm 14 W/m2
06:06 15.2 °C 11.9 °C 1010.4 hPa WSW 11.3 km/h 25.7 km/h 81 % 0 mm 14 W/m2
06:11 15 °C 11.9 °C 1010.4 hPa SW 11.3 km/h 19.3 km/h 82 % 0 mm 14 W/m2
06:16 14.8 °C 11.9 °C 1010 hPa SW 9.7 km/h 19.3 km/h 83 % 0 mm 14 W/m2
06:21 14.7 °C 12.2 °C 1010 hPa SW 6.4 km/h 12.9 km/h 85 % 0 mm 18 W/m2
06:31 14.6 °C 12.1 °C 1010.4 hPa WSW 3.2 km/h 9.7 km/h 85 % 0 mm 21 W/m2
06:36 14.6 °C 12.1 °C 1010 hPa West 1.6 km/h 9.7 km/h 85 % 0 mm 32 W/m2
06:41 14.6 °C 12.1 °C 1010.4 hPa WSW 3.2 km/h 17.7 km/h 85 % 0 mm 25 W/m2
06:46 14.6 °C 11.9 °C 1010.4 hPa WSW 3.2 km/h 17.7 km/h 84 % 0 mm 25 W/m2
06:51 14.6 °C 12.1 °C 1010.4 hPa West 3.2 km/h 14.5 km/h 85 % 0 mm 37 W/m2
06:53 14.7 °C 12.2 °C 1010.4 hPa WNW 4.8 km/h 14.5 km/h 85 % 0.25 mm 40 W/m2
06:58 14.6 °C 12.3 °C 1010.4 hPa West 8 km/h 14.5 km/h 86 % 0.51 mm 33 W/m2
07:03 14.6 °C 12.3 °C 1010.4 hPa West 8 km/h 19.3 km/h 86 % 0.51 mm 47 W/m2
07:08 14.4 °C 12.1 °C 1010.4 hPa West 8 km/h 19.3 km/h 86 % 0.51 mm 49 W/m2
07:13 14.4 °C 12.1 °C 1010.4 hPa West 8 km/h 17.7 km/h 86 % 0.51 mm 54 W/m2
07:18 14.4 °C 12.3 °C 1010.4 hPa West 6.4 km/h 16.1 km/h 87 % 0.51 mm 67 W/m2
07:23 14.4 °C 12.1 °C 1010.4 hPa West 9.7 km/h 29 km/h 86 % 0.51 mm 88 W/m2
07:28 14.5 °C 12.2 °C 1010.4 hPa WSW 14.5 km/h 29 km/h 86 % 0.51 mm 121 W/m2
07:33 14.6 °C 12.1 °C 1010.4 hPa WSW 16.1 km/h 32.2 km/h 85 % 0.51 mm 148 W/m2
07:38 14.8 °C 12.3 °C 1010.4 hPa West 16.1 km/h 32.2 km/h 85 % 0.51 mm 162 W/m2
07:43 14.9 °C 12.4 °C 1010.4 hPa West 12.9 km/h 29 km/h 85 % 0.51 mm 160 W/m2
07:48 15 °C 12.5 °C 1010.4 hPa West 12.9 km/h 24.1 km/h 85 % 0.51 mm 207 W/m2
07:53 15.2 °C 12.5 °C 1010.4 hPa West 16.1 km/h 32.2 km/h 84 % 0.25 mm 204 W/m2
07:58 15.4 °C 12.5 °C 1010 hPa WSW 20.9 km/h 37 km/h 83 % 0 mm 162 W/m2
08:03 15.4 °C 12.3 °C 1010.4 hPa WSW 25.7 km/h 46.7 km/h 82 % 0 mm 128 W/m2
08:08 15.6 °C 12.3 °C 1010 hPa WSW 27.4 km/h 46.7 km/h 81 % 0 mm 135 W/m2
08:13 15.7 °C 12.4 °C 1010.4 hPa WSW 25.7 km/h 45.1 km/h 81 % 0 mm 137 W/m2
08:18 15.7 °C 12.3 °C 1010 hPa WSW 27.4 km/h 48.3 km/h 80 % 0 mm 141 W/m2
08:23 15.7 °C 12.3 °C 1010.4 hPa West 27.4 km/h 48.3 km/h 80 % 0 mm 149 W/m2
08:29 15.8 °C 12.3 °C 1010.4 hPa West 27.4 km/h 48.3 km/h 80 % 0 mm 141 W/m2
08:34 15.7 °C 12.3 °C 1010.4 hPa West 29 km/h 49.9 km/h 80 % 0 mm 156 W/m2
08:39 15.7 °C 12.4 °C 1010.4 hPa West 29 km/h 53.1 km/h 81 % 0 mm 160 W/m2
08:44 15.6 °C 12.3 °C 1010.4 hPa West 27.4 km/h 53.1 km/h 81 % 0 mm 162 W/m2
08:49 15.6 °C 12.3 °C 1010.4 hPa West 25.7 km/h 46.7 km/h 81 % 0 mm 165 W/m2
08:54 15.6 °C 12.3 °C 1010.4 hPa WSW 27.4 km/h 46.7 km/h 81 % 0 mm 214 W/m2
08:56 15.6 °C 12.3 °C 1010.4 hPa West 29 km/h 46.7 km/h 81 % 0 mm 306 W/m2
09:01 15.8 °C 12.6 °C 1010.4 hPa West 27.4 km/h 43.5 km/h 81 % 0 mm 188 W/m2
09:06 15.9 °C 12.4 °C 1010.4 hPa WSW 29 km/h 49.9 km/h 80 % 0 mm 192 W/m2
09:11 15.9 °C 12.7 °C 1010.7 hPa WSW 27.4 km/h 49.9 km/h 81 % 0 mm 171 W/m2
09:16 15.9 °C 12.7 °C 1010.7 hPa WSW 20.9 km/h 40.2 km/h 81 % 0 mm 139 W/m2
09:21 15.9 °C 12.7 °C 1010.7 hPa WSW 22.5 km/h 40.2 km/h 81 % 0 mm 128 W/m2
09:26 15.8 °C 12.6 °C 1010.7 hPa WSW 24.1 km/h 40.2 km/h 81 % 0 mm 93 W/m2
09:31 15.8 °C 12.6 °C 1010.7 hPa WSW 20.9 km/h 37 km/h 81 % 0 mm 91 W/m2
09:36 15.8 °C 12.6 °C 1010.7 hPa WSW 17.7 km/h 32.2 km/h 81 % 0 mm 105 W/m2
09:41 15.9 °C 12.7 °C 1011.1 hPa WSW 17.7 km/h 32.2 km/h 81 % 0 mm 107 W/m2
09:46 15.9 °C 12.8 °C 1010.7 hPa West 17.7 km/h 32.2 km/h 82 % 0 mm 114 W/m2
09:51 15.9 °C 12.8 °C 1011.1 hPa WSW 16.1 km/h 32.2 km/h 82 % 0 mm 130 W/m2
09:56 15.9 °C 12.8 °C 1011.1 hPa West 19.3 km/h 33.8 km/h 82 % 0 mm 121 W/m2
10:01 16 °C 12.7 °C 1011.1 hPa West 20.9 km/h 33.8 km/h 81 % 0 mm 142 W/m2
10:06 16.1 °C 12.8 °C 1010.7 hPa West 20.9 km/h 38.6 km/h 81 % 0 mm 174 W/m2
10:11 16.2 °C 13.1 °C 1010.7 hPa West 19.3 km/h 38.6 km/h 82 % 0 mm 178 W/m2
10:16 16.2 °C 12.9 °C 1010.7 hPa WSW 19.3 km/h 49.9 km/h 81 % 0 mm 146 W/m2
10:22 16.1 °C 12.8 °C 1010.7 hPa WSW 22.5 km/h 49.9 km/h 81 % 0 mm 135 W/m2
10:27 16.1 °C 12.8 °C 1010.7 hPa WSW 22.5 km/h 40.2 km/h 81 % 0 mm 135 W/m2
10:32 16.1 °C 12.8 °C 1010.7 hPa WSW 24.1 km/h 40.2 km/h 81 % 0 mm 146 W/m2
10:37 16.2 °C 12.9 °C 1010.7 hPa WSW 24.1 km/h 40.2 km/h 81 % 0 mm 329 W/m2
10:42 16.4 °C 13.1 °C 1010.7 hPa WSW 22.5 km/h 40.2 km/h 81 % 0 mm 338 W/m2
10:52 16.8 °C 13.3 °C 1010.7 hPa WSW 22.5 km/h 38.6 km/h 80 % 0 mm 295 W/m2
10:57 16.9 °C 13.4 °C 1010.7 hPa WSW 20.9 km/h 35.4 km/h 80 % 0 mm 265 W/m2
11:02 16.9 °C 13.4 °C 1010.7 hPa WSW 24.1 km/h 38.6 km/h 80 % 0 mm 297 W/m2
11:07 17 °C 13.3 °C 1010.7 hPa WSW 25.7 km/h 43.5 km/h 79 % 0 mm 392 W/m2
11:12 17.1 °C 13.4 °C 1011.1 hPa WSW 25.7 km/h 43.5 km/h 79 % 0 mm 304 W/m2
11:17 17.3 °C 13.6 °C 1010.7 hPa WSW 22.5 km/h 38.6 km/h 79 % 0 mm 287 W/m2
11:22 17.3 °C 13.4 °C 1011.1 hPa WSW 22.5 km/h 38.6 km/h 78 % 0 mm 294 W/m2
11:27 17.4 °C 13.5 °C 1011.1 hPa WSW 22.5 km/h 37 km/h 78 % 0 mm 325 W/m2
11:32 17.5 °C 13.4 °C 1011.1 hPa West 24.1 km/h 41.8 km/h 77 % 0 mm 348 W/m2
11:37 17.6 °C 13.5 °C 1011.1 hPa West 24.1 km/h 41.8 km/h 77 % 0 mm 383 W/m2
11:42 17.8 °C 13.7 °C 1011.1 hPa West 20.9 km/h 40.2 km/h 77 % 0 mm 432 W/m2
11:47 17.8 °C 13.7 °C 1011.1 hPa West 22.5 km/h 40.2 km/h 77 % 0 mm 445 W/m2
11:52 17.9 °C 13.6 °C 1011.1 hPa WSW 25.7 km/h 43.5 km/h 76 % 0 mm 425 W/m2
11:57 17.8 °C 13.5 °C 1011.1 hPa WSW 27.4 km/h 43.5 km/h 76 % 0 mm 251 W/m2
12:02 17.7 °C 13.4 °C 1011.1 hPa WSW 25.7 km/h 45.1 km/h 76 % 0 mm 218 W/m2
12:07 17.6 °C 13.3 °C 1011.1 hPa WSW 22.5 km/h 45.1 km/h 76 % 0 mm 213 W/m2
12:12 17.6 °C 13.5 °C 1011.1 hPa WSW 20.9 km/h 41.8 km/h 77 % 0 mm 248 W/m2
12:17 17.6 °C 13.5 °C 1011.4 hPa West 19.3 km/h 32.2 km/h 77 % 0 mm 255 W/m2
12:22 17.7 °C 13.6 °C 1011.4 hPa West 17.7 km/h 30.6 km/h 77 % 0 mm 281 W/m2
12:27 17.8 °C 13.7 °C 1011.4 hPa WSW 17.7 km/h 29 km/h 77 % 0 mm 230 W/m2
12:32 17.8 °C 13.7 °C 1011.1 hPa WSW 17.7 km/h 30.6 km/h 77 % 0 mm 195 W/m2
12:37 17.8 °C 13.5 °C 1011.1 hPa WSW 19.3 km/h 33.8 km/h 76 % 0 mm 167 W/m2
12:42 17.8 °C 13.7 °C 1011.4 hPa WSW 19.3 km/h 33.8 km/h 77 % 0 mm 151 W/m2
12:47 17.8 °C 13.7 °C 1011.4 hPa WSW 16.1 km/h 30.6 km/h 77 % 0 mm 169 W/m2
12:52 17.8 °C 13.7 °C 1011.4 hPa WSW 17.7 km/h 32.2 km/h 77 % 0 mm 199 W/m2
12:57 17.9 °C 13.8 °C 1011.1 hPa WSW 17.7 km/h 32.2 km/h 77 % 0 mm 272 W/m2
13:02 18 °C 13.9 °C 1011.4 hPa WSW 19.3 km/h 30.6 km/h 77 % 0 mm 229 W/m2
13:03 18 °C 13.9 °C 1011.4 hPa WSW 19.3 km/h 30.6 km/h 77 % 0 mm 221 W/m2
13:08 18.1 °C 14 °C 1011.4 hPa WSW 19.3 km/h 30.6 km/h 77 % 0 mm 200 W/m2
13:13 18.1 °C 14 °C 1011.4 hPa WSW 19.3 km/h 35.4 km/h 77 % 0 mm 158 W/m2
13:14 18.1 °C 14 °C 1011.4 hPa WSW 19.3 km/h 35.4 km/h 77 % 0 mm 153 W/m2
13:19 18 °C 13.9 °C 1011.7 hPa WSW 19.3 km/h 35.4 km/h 77 % 0 mm 137 W/m2
13:24 17.9 °C 14 °C 1011.7 hPa WSW 16.1 km/h 29 km/h 78 % 0 mm 135 W/m2
13:29 17.8 °C 13.9 °C 1011.4 hPa WSW 17.7 km/h 32.2 km/h 78 % 0 mm 258 W/m2
13:34 17.7 °C 14 °C 1011.4 hPa WSW 19.3 km/h 32.2 km/h 79 % 0 mm 258 W/m2
13:39 17.6 °C 14.1 °C 1011.7 hPa WSW 17.7 km/h 30.6 km/h 80 % 0 mm 195 W/m2
13:44 17.6 °C 14.1 °C 1011.7 hPa WSW 14.5 km/h 25.7 km/h 80 % 0 mm 156 W/m2
13:49 17.6 °C 14.3 °C 1011.7 hPa WSW 14.5 km/h 33.8 km/h 81 % 0 mm 149 W/m2
13:54 17.6 °C 14.3 °C 1011.7 hPa WSW 16.1 km/h 33.8 km/h 81 % 0 mm 104 W/m2
13:59 17.5 °C 14.2 °C 1011.7 hPa WSW 16.1 km/h 29 km/h 81 % 0 mm 109 W/m2
14:04 17.4 °C 14.1 °C 1011.7 hPa WSW 17.7 km/h 30.6 km/h 81 % 0 mm 125 W/m2
14:09 17.3 °C 14 °C 1011.7 hPa WSW 17.7 km/h 30.6 km/h 81 % 0 mm 181 W/m2
14:14 17.3 °C 14.2 °C 1012.1 hPa WSW 17.7 km/h 32.2 km/h 82 % 0 mm 172 W/m2
14:19 17.4 °C 14.3 °C 1011.7 hPa WSW 14.5 km/h 32.2 km/h 82 % 0 mm 160 W/m2
14:24 17.4 °C 14.3 °C 1011.7 hPa WSW 12.9 km/h 19.3 km/h 82 % 0 mm 225 W/m2
14:29 17.6 °C 14.3 °C 1011.7 hPa WSW 14.5 km/h 24.1 km/h 81 % 0 mm 220 W/m2
14:34 17.7 °C 14.2 °C 1011.4 hPa WSW 16.1 km/h 25.7 km/h 80 % 0 mm 297 W/m2
14:39 17.9 °C 14.4 °C 1011.4 hPa WSW 14.5 km/h 25.7 km/h 80 % 0 mm 204 W/m2
14:44 18.1 °C 14.4 °C 1011.4 hPa SW 14.5 km/h 30.6 km/h 79 % 0 mm 148 W/m2
14:49 18.1 °C 14.4 °C 1011.4 hPa SW 16.1 km/h 30.6 km/h 79 % 0 mm 174 W/m2
14:54 18 °C 14.3 °C 1011.4 hPa SW 17.7 km/h 30.6 km/h 79 % 0 mm 139 W/m2
14:59 17.9 °C 14.2 °C 1011.4 hPa SW 16.1 km/h 30.6 km/h 79 % 0 mm 135 W/m2
15:04 17.9 °C 14.2 °C 1011.4 hPa SW 14.5 km/h 32.2 km/h 79 % 0 mm 144 W/m2
15:09 17.9 °C 14.2 °C 1011.4 hPa SW 14.5 km/h 32.2 km/h 79 % 0 mm 90 W/m2
15:14 17.9 °C 14.4 °C 1011.4 hPa WSW 14.5 km/h 25.7 km/h 80 % 0 mm 79 W/m2
15:19 17.9 °C 14.4 °C 1011.4 hPa WSW 12.9 km/h 24.1 km/h 80 % 0 mm 63 W/m2
15:24 17.8 °C 14.3 °C 1011.1 hPa SW 12.9 km/h 22.5 km/h 80 % 0 mm 79 W/m2
15:29 17.8 °C 14.3 °C 1011.1 hPa SW 12.9 km/h 22.5 km/h 80 % 0 mm 97 W/m2
15:34 17.7 °C 14 °C 1011.1 hPa WSW 14.5 km/h 22.5 km/h 79 % 0 mm 111 W/m2
15:39 17.8 °C 14.1 °C 1011.1 hPa WSW 14.5 km/h 29 km/h 79 % 0 mm 167 W/m2
15:44 18 °C 14.1 °C 1011.1 hPa WSW 14.5 km/h 30.6 km/h 78 % 0 mm 350 W/m2
15:50 18.3 °C 14.2 °C 1011.4 hPa WSW 16.1 km/h 30.6 km/h 77 % 0 mm 352 W/m2
15:55 18.6 °C 14.5 °C 1011.1 hPa WSW 14.5 km/h 30.6 km/h 77 % 0 mm 411 W/m2
16:00 18.8 °C 14.7 °C 1011.1 hPa WSW 14.5 km/h 29 km/h 77 % 0 mm 338 W/m2
16:05 18.9 °C 14.4 °C 1011.4 hPa WSW 17.7 km/h 37 km/h 75 % 0 mm 253 W/m2
16:10 18.8 °C 14.3 °C 1011.1 hPa WSW 20.9 km/h 37 km/h 75 % 0 mm 200 W/m2
16:15 18.8 °C 14.3 °C 1011.4 hPa WSW 19.3 km/h 32.2 km/h 75 % 0 mm 190 W/m2
16:20 18.8 °C 14.5 °C 1011.4 hPa WSW 17.7 km/h 30.6 km/h 76 % 0 mm 200 W/m2
16:25 18.8 °C 14.3 °C 1011.4 hPa WSW 20.9 km/h 33.8 km/h 75 % 0 mm 221 W/m2
16:30 18.8 °C 14.3 °C 1011.4 hPa WSW 20.9 km/h 40.2 km/h 75 % 0 mm 220 W/m2
16:35 18.9 °C 14.4 °C 1011.4 hPa WSW 17.7 km/h 40.2 km/h 75 % 0 mm 237 W/m2
16:40 19 °C 14.4 °C 1011.4 hPa WSW 16.1 km/h 30.6 km/h 75 % 0 mm 162 W/m2
16:50 18.9 °C 14.6 °C 1011.4 hPa SW 17.7 km/h 33.8 km/h 76 % 0 mm 118 W/m2
16:55 18.8 °C 14.5 °C 1011.4 hPa WSW 17.7 km/h 33.8 km/h 76 % 0 mm 139 W/m2
17:00 18.7 °C 14.2 °C 1011.4 hPa WSW 19.3 km/h 35.4 km/h 75 % 0 mm 165 W/m2
17:05 18.7 °C 14.4 °C 1011.1 hPa WSW 20.9 km/h 35.4 km/h 76 % 0 mm 181 W/m2
17:10 18.8 °C 14.3 °C 1011.1 hPa WSW 19.3 km/h 33.8 km/h 75 % 0 mm 195 W/m2
17:15 18.8 °C 14.3 °C 1011.1 hPa WSW 17.7 km/h 33.8 km/h 75 % 0 mm 251 W/m2
17:20 18.9 °C 14.4 °C 1011.1 hPa WSW 19.3 km/h 32.2 km/h 75 % 0 mm 250 W/m2
17:25 18.9 °C 14.4 °C 1011.1 hPa WSW 22.5 km/h 37 km/h 75 % 0 mm 181 W/m2
17:30 18.9 °C 14.4 °C 1011.1 hPa WSW 19.3 km/h 37 km/h 75 % 0 mm 155 W/m2
17:35 18.9 °C 14.4 °C 1011.1 hPa WSW 17.7 km/h 30.6 km/h 75 % 0 mm 155 W/m2
17:40 18.8 °C 14.3 °C 1011.1 hPa WSW 19.3 km/h 33.8 km/h 75 % 0 mm 162 W/m2
17:45 18.9 °C 14.4 °C 1011.1 hPa WSW 16.1 km/h 33.8 km/h 75 % 0 mm 135 W/m2
17:50 18.9 °C 14.4 °C 1011.1 hPa WSW 16.1 km/h 30.6 km/h 75 % 0 mm 105 W/m2
17:56 18.9 °C 14.4 °C 1011.1 hPa WSW 16.1 km/h 25.7 km/h 75 % 0 mm 137 W/m2
18:01 18.8 °C 14.5 °C 1011.4 hPa WSW 16.1 km/h 29 km/h 76 % 0 mm 181 W/m2
18:06 18.8 °C 14.5 °C 1011.1 hPa WSW 17.7 km/h 29 km/h 76 % 0 mm 144 W/m2
18:11 18.7 °C 14.4 °C 1011.1 hPa WSW 19.3 km/h 30.6 km/h 76 % 0 mm 120 W/m2
18:16 18.7 °C 14.6 °C 1011.1 hPa WSW 16.1 km/h 33.8 km/h 77 % 0 mm 102 W/m2
18:21 18.7 °C 14.4 °C 1011.1 hPa WSW 16.1 km/h 33.8 km/h 76 % 0 mm 105 W/m2
18:26 18.7 °C 14.6 °C 1011.1 hPa WSW 14.5 km/h 25.7 km/h 77 % 0 mm 146 W/m2
18:31 18.7 °C 14.6 °C 1011.1 hPa WSW 12.9 km/h 20.9 km/h 77 % 0 mm 142 W/m2
18:36 18.7 °C 14.4 °C 1011.1 hPa West 14.5 km/h 24.1 km/h 76 % 0 mm 98 W/m2
18:41 18.7 °C 14.4 °C 1011.1 hPa West 16.1 km/h 29 km/h 76 % 0 mm 91 W/m2
18:46 18.6 °C 14.3 °C 1011.1 hPa West 16.1 km/h 30.6 km/h 76 % 0 mm 100 W/m2
18:51 18.6 °C 14.3 °C 1011.1 hPa West 16.1 km/h 30.6 km/h 76 % 0 mm 98 W/m2
18:56 18.6 °C 14.5 °C 1011.1 hPa WSW 14.5 km/h 30.6 km/h 77 % 0 mm 93 W/m2
19:01 18.5 °C 14.4 °C 1011.1 hPa WSW 14.5 km/h 25.7 km/h 77 % 0 mm 84 W/m2
19:06 18.4 °C 14.3 °C 1011.1 hPa WSW 16.1 km/h 25.7 km/h 77 % 0 mm 74 W/m2
19:11 18.4 °C 14.3 °C 1011.1 hPa WSW 14.5 km/h 24.1 km/h 77 % 0 mm 76 W/m2
19:16 18.4 °C 14.3 °C 1011.1 hPa WSW 16.1 km/h 30.6 km/h 77 % 0 mm 53 W/m2
19:21 18.3 °C 14.2 °C 1011.1 hPa WSW 17.7 km/h 30.6 km/h 77 % 0 mm 49 W/m2
19:26 18.2 °C 14.1 °C 1011.1 hPa WSW 16.1 km/h 29 km/h 77 % 0 mm 51 W/m2
19:32 18.2 °C 14.3 °C 1011.1 hPa WSW 12.9 km/h 22.5 km/h 78 % 0 mm 42 W/m2
19:37 18.1 °C 14.2 °C 1011.1 hPa WSW 14.5 km/h 22.5 km/h 78 % 0 mm 30 W/m2
19:42 18.1 °C 14.2 °C 1011.1 hPa WSW 12.9 km/h 22.5 km/h 78 % 0 mm 26 W/m2
19:47 18 °C 14.1 °C 1011.1 hPa West 11.3 km/h 19.3 km/h 78 % 0 mm 19 W/m2
19:52 17.9 °C 14.2 °C 1011.1 hPa West 14.5 km/h 22.5 km/h 79 % 0 mm 21 W/m2
19:57 17.9 °C 14.2 °C 1011.1 hPa West 16.1 km/h 22.5 km/h 79 % 0 mm 16 W/m2
20:02 17.8 °C 14.1 °C 1011.1 hPa West 14.5 km/h 24.1 km/h 79 % 0 mm 12 W/m2
20:07 17.8 °C 14.1 °C 1011.1 hPa WSW 16.1 km/h 30.6 km/h 79 % 0 mm 11 W/m2
20:12 17.8 °C 14.1 °C 1011.1 hPa WSW 16.1 km/h 30.6 km/h 79 % 0 mm 11 W/m2
20:17 17.7 °C 14.2 °C 1011.1 hPa WSW 12.9 km/h 24.1 km/h 80 % 0 mm 7 W/m2
20:22 17.7 °C 14.2 °C 1011.1 hPa WSW 12.9 km/h 22.5 km/h 80 % 0 mm 7 W/m2
20:27 17.7 °C 14.2 °C 1011.1 hPa WSW 12.9 km/h 22.5 km/h 80 % 0 mm 9 W/m2
20:32 17.6 °C 14.1 °C 1011.1 hPa WSW 11.3 km/h 20.9 km/h 80 % 0 mm 12 W/m2
20:37 17.6 °C 14.1 °C 1011.1 hPa WSW 11.3 km/h 17.7 km/h 80 % 0 mm 14 W/m2
20:42 17.6 °C 14.3 °C 1011.1 hPa WSW 11.3 km/h 17.7 km/h 81 % 0 mm 21 W/m2
20:47 17.6 °C 14.3 °C 1011.1 hPa WSW 12.9 km/h 22.5 km/h 81 % 0 mm 23 W/m2
20:52 17.6 °C 14.3 °C 1011.1 hPa WSW 12.9 km/h 22.5 km/h 81 % 0 mm 18 W/m2
20:57 17.4 °C 14.1 °C 1011.1 hPa WSW 12.9 km/h 22.5 km/h 81 % 0 mm 11 W/m2
21:02 17.4 °C 14.3 °C 1011.1 hPa WSW 14.5 km/h 22.5 km/h 82 % 0 mm 7 W/m2
21:07 17.3 °C 14.2 °C 1011.1 hPa WSW 14.5 km/h 20.9 km/h 82 % 0 mm 5 W/m2
21:12 17.2 °C 14.3 °C 1011.1 hPa WSW 12.9 km/h 24.1 km/h 83 % 0 mm 5 W/m2
21:17 17.1 °C 14.2 °C 1011.1 hPa WSW 12.9 km/h 24.1 km/h 83 % 0 mm 0 W/m2
21:22 17.1 °C 14.4 °C 1011.1 hPa WSW 11.3 km/h 17.7 km/h 84 % 0 mm 0 W/m2
21:27 17 °C 14.3 °C 1011.1 hPa SW 12.9 km/h 22.5 km/h 84 % 0 mm 0 W/m2
21:32 16.9 °C 14.2 °C 1011.1 hPa SW 14.5 km/h 24.1 km/h 84 % 0 mm 0 W/m2
21:37 16.9 °C 14.3 °C 1011.1 hPa WSW 12.9 km/h 24.1 km/h 85 % 0 mm 0 W/m2
21:42 16.8 °C 14.3 °C 1011.1 hPa WSW 12.9 km/h 22.5 km/h 85 % 0 mm 0 W/m2
21:47 16.8 °C 14.3 °C 1011.1 hPa WSW 11.3 km/h 22.5 km/h 85 % 0 mm 0 W/m2
21:52 16.8 °C 14.3 °C 1011.1 hPa WSW 12.9 km/h 20.9 km/h 85 % 0 mm 0 W/m2
21:57 16.7 °C 14.2 °C 1011.1 hPa SW 12.9 km/h 20.9 km/h 85 % 0 mm 0 W/m2
22:02 16.7 °C 14.3 °C 1011.1 hPa SW 12.9 km/h 19.3 km/h 86 % 0 mm 0 W/m2
22:07 16.6 °C 14.2 °C 1011.1 hPa SW 11.3 km/h 17.7 km/h 86 % 0 mm 0 W/m2
22:12 16.6 °C 14.2 °C 1011.1 hPa SW 11.3 km/h 17.7 km/h 86 % 0 mm 0 W/m2
22:17 16.6 °C 14.4 °C 1011.1 hPa SW 11.3 km/h 19.3 km/h 87 % 0 mm 0 W/m2
22:22 16.6 °C 14.4 °C 1011.1 hPa SW 11.3 km/h 19.3 km/h 87 % 0 mm 0 W/m2
22:27 16.5 °C 14.3 °C 1011.1 hPa SW 11.3 km/h 16.1 km/h 87 % 0 mm 0 W/m2
22:32 16.5 °C 14.3 °C 1011.1 hPa SW 9.7 km/h 17.7 km/h 87 % 0 mm 0 W/m2
22:38 16.5 °C 14.3 °C 1011.1 hPa WSW 11.3 km/h 19.3 km/h 87 % 0 mm 0 W/m2
22:43 16.4 °C 14.2 °C 1011.1 hPa WSW 12.9 km/h 20.9 km/h 87 % 0 mm 0 W/m2
22:48 16.4 °C 14.2 °C 1011.1 hPa WSW 11.3 km/h 20.9 km/h 87 % 0 mm 0 W/m2
22:53 16.4 °C 14.2 °C 1010.7 hPa WSW 11.3 km/h 19.3 km/h 87 % 0 mm 0 W/m2
22:58 16.5 °C 14.3 °C 1010.7 hPa SW 12.9 km/h 19.3 km/h 87 % 0 mm 0 W/m2
23:03 16.5 °C 14.3 °C 1010.7 hPa SW 12.9 km/h 19.3 km/h 87 % 0 mm 0 W/m2
23:08 16.4 °C 14.4 °C 1010.7 hPa WSW 12.9 km/h 19.3 km/h 88 % 0 mm 0 W/m2
23:13 16.4 °C 14.4 °C 1010.7 hPa WSW 11.3 km/h 20.9 km/h 88 % 0 mm 0 W/m2
23:18 16.3 °C 14.3 °C 1010.7 hPa WSW 12.9 km/h 20.9 km/h 88 % 0 mm 0 W/m2
23:23 16.3 °C 14.5 °C 1010.7 hPa WSW 12.9 km/h 20.9 km/h 89 % 0 mm 0 W/m2
23:28 16.2 °C 14.4 °C 1010.7 hPa WSW 12.9 km/h 20.9 km/h 89 % 0 mm 0 W/m2
23:33 16.2 °C 14.4 °C 1010.7 hPa WSW 12.9 km/h 20.9 km/h 89 % 0 mm 0 W/m2
23:38 16.2 °C 14.4 °C 1010.7 hPa WSW 11.3 km/h 17.7 km/h 89 % 0 mm 0 W/m2
23:43 16.2 °C 14.4 °C 1010.7 hPa WSW 11.3 km/h 19.3 km/h 89 % 0 mm 0 W/m2
23:48 16.2 °C 14.4 °C 1010.7 hPa WSW 12.9 km/h 19.3 km/h 89 % 0 mm 0 W/m2
23:53 16.2 °C 14.4 °C 1010.7 hPa WSW 12.9 km/h 17.7 km/h 89 % 0 mm 0 W/m2
23:58 16.2 °C 14.2 °C 1010.7 hPa WSW 11.3 km/h 19.3 km/h 88 % 0 mm 0 W/m2
Delerius-Weather
Compliments of Weather Underground - 2.25 mb

Data updates at regular intervals.